sensor_id;sensor_type;location;lat;lon;timestamp;temperature;humidity
9049;DHT22;4559;47.252;9.592;2022-08-19T00:00:11;18.40;99.90
9049;DHT22;4559;47.252;9.592;2022-08-19T00:02:40;18.40;99.90
9049;DHT22;4559;47.252;9.592;2022-08-19T00:05:06;18.40;99.90
9049;DHT22;4559;47.252;9.592;2022-08-19T00:07:32;18.40;99.90
9049;DHT22;4559;47.252;9.592;2022-08-19T00:09:58;18.40;99.90
9049;DHT22;4559;47.252;9.592;2022-08-19T00:12:24;18.40;99.90
9049;DHT22;4559;47.252;9.592;2022-08-19T00:14:49;18.50;99.90
9049;DHT22;4559;47.252;9.592;2022-08-19T00:17:15;18.50;99.90
9049;DHT22;4559;47.252;9.592;2022-08-19T00:19:41;18.50;99.90
9049;DHT22;4559;47.252;9.592;2022-08-19T00:22:06;18.50;99.90
9049;DHT22;4559;47.252;9.592;2022-08-19T00:24:34;18.50;99.90
9049;DHT22;4559;47.252;9.592;2022-08-19T00:27:01;18.50;99.90
9049;DHT22;4559;47.252;9.592;2022-08-19T00:29:27;18.50;99.90
9049;DHT22;4559;47.252;9.592;2022-08-19T00:31:53;18.50;99.90
9049;DHT22;4559;47.252;9.592;2022-08-19T00:34:21;18.50;99.90
9049;DHT22;4559;47.252;9.592;2022-08-19T00:36:48;18.50;99.90
9049;DHT22;4559;47.252;9.592;2022-08-19T00:39:15;18.50;99.90
9049;DHT22;4559;47.252;9.592;2022-08-19T00:41:42;18.50;99.90
9049;DHT22;4559;47.252;9.592;2022-08-19T00:46:42;18.50;99.90
9049;DHT22;4559;47.252;9.592;2022-08-19T00:49:18;18.60;99.90
9049;DHT22;4559;47.252;9.592;2022-08-19T00:51:48;18.50;99.90
9049;DHT22;4559;47.252;9.592;2022-08-19T00:54:16;18.50;99.90
9049;DHT22;4559;47.252;9.592;2022-08-19T00:56:45;18.50;99.90
9049;DHT22;4559;47.252;9.592;2022-08-19T00:59:11;18.50;99.90
9049;DHT22;4559;47.252;9.592;2022-08-19T01:01:40;18.50;99.90
9049;DHT22;4559;47.252;9.592;2022-08-19T01:04:06;18.50;99.90
9049;DHT22;4559;47.252;9.592;2022-08-19T01:06:33;18.50;99.90
9049;DHT22;4559;47.252;9.592;2022-08-19T01:09:00;18.50;99.90
9049;DHT22;4559;47.252;9.592;2022-08-19T01:11:27;18.50;99.90
9049;DHT22;4559;47.252;9.592;2022-08-19T01:13:54;18.50;99.90
9049;DHT22;4559;47.252;9.592;2022-08-19T01:16:22;18.50;99.90
9049;DHT22;4559;47.252;9.592;2022-08-19T01:18:49;18.50;99.90
9049;DHT22;4559;47.252;9.592;2022-08-19T01:21:26;18.50;99.90
9049;DHT22;4559;47.252;9.592;2022-08-19T01:23:53;18.50;99.90
9049;DHT22;4559;47.252;9.592;2022-08-19T01:26:21;18.50;99.90
9049;DHT22;4559;47.252;9.592;2022-08-19T01:28:50;18.40;99.90
9049;DHT22;4559;47.252;9.592;2022-08-19T01:31:20;18.50;99.90
9049;DHT22;4559;47.252;9.592;2022-08-19T01:33:48;18.50;99.90
9049;DHT22;4559;47.252;9.592;2022-08-19T01:36:32;18.50;99.90
9049;DHT22;4559;47.252;9.592;2022-08-19T01:38:59;18.40;99.90
9049;DHT22;4559;47.252;9.592;2022-08-19T01:41:25;18.40;99.90
9049;DHT22;4559;47.252;9.592;2022-08-19T01:43:52;18.50;99.90
9049;DHT22;4559;47.252;9.592;2022-08-19T01:46:18;18.40;99.90
9049;DHT22;4559;47.252;9.592;2022-08-19T01:48:45;18.40;99.90
9049;DHT22;4559;47.252;9.592;2022-08-19T01:51:11;18.40;99.90
9049;DHT22;4559;47.252;9.592;2022-08-19T01:53:37;18.40;99.90
9049;DHT22;4559;47.252;9.592;2022-08-19T01:56:04;18.40;99.90
9049;DHT22;4559;47.252;9.592;2022-08-19T01:58:38;18.40;99.90
9049;DHT22;4559;47.252;9.592;2022-08-19T02:01:06;18.40;99.90
9049;DHT22;4559;47.252;9.592;2022-08-19T02:03:32;18.40;99.90
9049;DHT22;4559;47.252;9.592;2022-08-19T02:06:00;18.40;99.90
9049;DHT22;4559;47.252;9.592;2022-08-19T02:08:29;18.40;99.90
9049;DHT22;4559;47.252;9.592;2022-08-19T02:10:55;18.40;99.90
9049;DHT22;4559;47.252;9.592;2022-08-19T02:13:21;18.40;99.90
9049;DHT22;4559;47.252;9.592;2022-08-19T02:15:46;18.40;99.90
9049;DHT22;4559;47.252;9.592;2022-08-19T02:18:12;18.40;99.90
9049;DHT22;4559;47.252;9.592;2022-08-19T02:20:39;18.40;99.90
9049;DHT22;4559;47.252;9.592;2022-08-19T02:23:06;18.40;99.90
9049;DHT22;4559;47.252;9.592;2022-08-19T02:25:32;18.40;99.90
9049;DHT22;4559;47.252;9.592;2022-08-19T02:27:58;18.40;99.90
9049;DHT22;4559;47.252;9.592;2022-08-19T02:30:23;18.40;99.90
9049;DHT22;4559;47.252;9.592;2022-08-19T02:32:50;18.40;99.90
9049;DHT22;4559;47.252;9.592;2022-08-19T02:35:16;18.50;99.90
9049;DHT22;4559;47.252;9.592;2022-08-19T02:37:43;18.50;99.90
9049;DHT22;4559;47.252;9.592;2022-08-19T02:40:29;18.50;99.90
9049;DHT22;4559;47.252;9.592;2022-08-19T02:42:55;18.50;99.90
9049;DHT22;4559;47.252;9.592;2022-08-19T02:45:21;18.50;99.90
9049;DHT22;4559;47.252;9.592;2022-08-19T02:47:48;18.50;99.90
9049;DHT22;4559;47.252;9.592;2022-08-19T02:50:13;18.50;99.90
9049;DHT22;4559;47.252;9.592;2022-08-19T02:52:40;18.50;99.90
9049;DHT22;4559;47.252;9.592;2022-08-19T02:55:06;18.50;99.90
9049;DHT22;4559;47.252;9.592;2022-08-19T02:57:32;18.50;99.90
9049;DHT22;4559;47.252;9.592;2022-08-19T02:59:58;18.40;99.90
9049;DHT22;4559;47.252;9.592;2022-08-19T03:02:24;18.50;99.90
9049;DHT22;4559;47.252;9.592;2022-08-19T03:04:49;18.50;99.90
9049;DHT22;4559;47.252;9.592;2022-08-19T03:07:17;18.50;99.90
9049;DHT22;4559;47.252;9.592;2022-08-19T03:09:44;18.50;99.90
9049;DHT22;4559;47.252;9.592;2022-08-19T03:12:10;18.40;99.90
9049;DHT22;4559;47.252;9.592;2022-08-19T03:14:37;18.50;99.90
9049;DHT22;4559;47.252;9.592;2022-08-19T03:17:03;18.50;99.90
9049;DHT22;4559;47.252;9.592;2022-08-19T03:19:30;18.50;99.90
9049;DHT22;4559;47.252;9.592;2022-08-19T03:21:57;18.40;99.90
9049;DHT22;4559;47.252;9.592;2022-08-19T03:24:23;18.40;99.90
9049;DHT22;4559;47.252;9.592;2022-08-19T03:26:51;18.40;99.90
9049;DHT22;4559;47.252;9.592;2022-08-19T03:29:19;18.40;99.90
9049;DHT22;4559;47.252;9.592;2022-08-19T03:31:45;18.40;99.90
9049;DHT22;4559;47.252;9.592;2022-08-19T03:34:14;18.40;99.90
9049;DHT22;4559;47.252;9.592;2022-08-19T03:36:40;18.40;99.90
9049;DHT22;4559;47.252;9.592;2022-08-19T03:39:06;18.40;99.90
9049;DHT22;4559;47.252;9.592;2022-08-19T03:41:37;18.40;99.90
9049;DHT22;4559;47.252;9.592;2022-08-19T03:44:04;18.40;99.90
9049;DHT22;4559;47.252;9.592;2022-08-19T03:46:32;18.40;99.90
9049;DHT22;4559;47.252;9.592;2022-08-19T03:49:00;18.40;99.90
9049;DHT22;4559;47.252;9.592;2022-08-19T03:51:31;18.40;99.90
9049;DHT22;4559;47.252;9.592;2022-08-19T03:53:59;18.40;99.90
9049;DHT22;4559;47.252;9.592;2022-08-19T03:56:26;18.40;99.90
9049;DHT22;4559;47.252;9.592;2022-08-19T03:58:54;18.40;99.90
9049;DHT22;4559;47.252;9.592;2022-08-19T04:01:23;18.40;99.90
9049;DHT22;4559;47.252;9.592;2022-08-19T04:03:52;18.30;99.90
9049;DHT22;4559;47.252;9.592;2022-08-19T04:06:23;18.30;99.90
9049;DHT22;4559;47.252;9.592;2022-08-19T04:08:51;18.30;99.90
9049;DHT22;4559;47.252;9.592;2022-08-19T04:11:23;18.30;99.90
9049;DHT22;4559;47.252;9.592;2022-08-19T04:13:51;18.30;99.90
9049;DHT22;4559;47.252;9.592;2022-08-19T04:16:22;18.30;99.90
9049;DHT22;4559;47.252;9.592;2022-08-19T04:18:49;18.40;99.90
9049;DHT22;4559;47.252;9.592;2022-08-19T04:21:17;18.40;99.90
9049;DHT22;4559;47.252;9.592;2022-08-19T04:23:44;18.40;99.90
9049;DHT22;4559;47.252;9.592;2022-08-19T04:26:14;18.30;99.90
9049;DHT22;4559;47.252;9.592;2022-08-19T04:28:41;18.30;99.90
9049;DHT22;4559;47.252;9.592;2022-08-19T04:31:13;18.30;99.90
9049;DHT22;4559;47.252;9.592;2022-08-19T04:33:40;18.20;99.90
9049;DHT22;4559;47.252;9.592;2022-08-19T04:36:06;18.20;99.90
9049;DHT22;4559;47.252;9.592;2022-08-19T04:38:31;18.20;99.90
9049;DHT22;4559;47.252;9.592;2022-08-19T04:40:57;18.20;99.90
9049;DHT22;4559;47.252;9.592;2022-08-19T04:43:41;18.30;99.90
9049;DHT22;4559;47.252;9.592;2022-08-19T04:46:11;18.30;99.90
9049;DHT22;4559;47.252;9.592;2022-08-19T04:48:38;18.30;99.90
9049;DHT22;4559;47.252;9.592;2022-08-19T04:51:10;18.30;99.90
9049;DHT22;4559;47.252;9.592;2022-08-19T04:53:39;18.30;99.90
9049;DHT22;4559;47.252;9.592;2022-08-19T04:56:10;18.30;99.90
9049;DHT22;4559;47.252;9.592;2022-08-19T04:58:37;18.20;99.90
9049;DHT22;4559;47.252;9.592;2022-08-19T05:01:04;18.30;99.90
9049;DHT22;4559;47.252;9.592;2022-08-19T05:03:30;18.30;99.90
9049;DHT22;4559;47.252;9.592;2022-08-19T05:06:09;18.30;99.90
9049;DHT22;4559;47.252;9.592;2022-08-19T05:08:37;18.30;99.90
9049;DHT22;4559;47.252;9.592;2022-08-19T05:11:15;18.30;99.90
9049;DHT22;4559;47.252;9.592;2022-08-19T05:13:41;18.30;99.90
9049;DHT22;4559;47.252;9.592;2022-08-19T05:16:08;18.30;99.90
9049;DHT22;4559;47.252;9.592;2022-08-19T05:18:34;18.30;99.90
9049;DHT22;4559;47.252;9.592;2022-08-19T05:21:20;18.30;99.90
9049;DHT22;4559;47.252;9.592;2022-08-19T05:24:05;18.30;99.90
9049;DHT22;4559;47.252;9.592;2022-08-19T05:26:42;18.30;99.90
9049;DHT22;4559;47.252;9.592;2022-08-19T05:29:09;18.30;99.90
9049;DHT22;4559;47.252;9.592;2022-08-19T05:31:37;18.30;99.90
9049;DHT22;4559;47.252;9.592;2022-08-19T05:34:04;18.40;99.90
9049;DHT22;4559;47.252;9.592;2022-08-19T05:36:35;18.40;99.90
9049;DHT22;4559;47.252;9.592;2022-08-19T05:39:03;18.40;99.90
9049;DHT22;4559;47.252;9.592;2022-08-19T05:41:29;18.40;99.90
9049;DHT22;4559;47.252;9.592;2022-08-19T05:43:57;18.40;99.90
9049;DHT22;4559;47.252;9.592;2022-08-19T05:46:23;18.40;99.90
9049;DHT22;4559;47.252;9.592;2022-08-19T05:48:49;18.50;99.90
9049;DHT22;4559;47.252;9.592;2022-08-19T05:51:15;18.50;99.90
9049;DHT22;4559;47.252;9.592;2022-08-19T05:53:42;18.50;99.90
9049;DHT22;4559;47.252;9.592;2022-08-19T05:56:13;18.50;99.90
9049;DHT22;4559;47.252;9.592;2022-08-19T05:58:39;18.50;99.90
9049;DHT22;4559;47.252;9.592;2022-08-19T06:01:11;18.50;99.90
9049;DHT22;4559;47.252;9.592;2022-08-19T06:03:37;18.50;99.90
9049;DHT22;4559;47.252;9.592;2022-08-19T06:06:05;18.60;99.90
9049;DHT22;4559;47.252;9.592;2022-08-19T06:08:31;18.60;99.90
9049;DHT22;4559;47.252;9.592;2022-08-19T06:10:58;18.70;99.90
9049;DHT22;4559;47.252;9.592;2022-08-19T06:13:36;18.70;99.90
9049;DHT22;4559;47.252;9.592;2022-08-19T06:16:02;18.70;99.90
9049;DHT22;4559;47.252;9.592;2022-08-19T06:18:27;18.70;99.90
9049;DHT22;4559;47.252;9.592;2022-08-19T06:20:53;18.70;99.90
9049;DHT22;4559;47.252;9.592;2022-08-19T06:23:18;18.70;99.90
9049;DHT22;4559;47.252;9.592;2022-08-19T06:25:45;18.70;99.90
9049;DHT22;4559;47.252;9.592;2022-08-19T06:28:11;18.70;99.90
9049;DHT22;4559;47.252;9.592;2022-08-19T06:30:37;18.70;99.90
9049;DHT22;4559;47.252;9.592;2022-08-19T06:33:02;18.70;99.90
9049;DHT22;4559;47.252;9.592;2022-08-19T06:35:28;18.60;99.90
9049;DHT22;4559;47.252;9.592;2022-08-19T06:37:55;18.60;99.90
9049;DHT22;4559;47.252;9.592;2022-08-19T06:40:21;18.60;99.90
9049;DHT22;4559;47.252;9.592;2022-08-19T06:42:47;18.60;99.90
9049;DHT22;4559;47.252;9.592;2022-08-19T06:45:13;18.60;99.90
9049;DHT22;4559;47.252;9.592;2022-08-19T06:47:40;18.60;99.90
9049;DHT22;4559;47.252;9.592;2022-08-19T06:50:11;18.60;99.90
9049;DHT22;4559;47.252;9.592;2022-08-19T06:52:37;18.60;99.90
9049;DHT22;4559;47.252;9.592;2022-08-19T06:55:05;18.60;99.90
9049;DHT22;4559;47.252;9.592;2022-08-19T06:57:31;18.60;99.90
9049;DHT22;4559;47.252;9.592;2022-08-19T06:59:58;18.60;99.90
9049;DHT22;4559;47.252;9.592;2022-08-19T07:02:25;18.60;99.90
9049;DHT22;4559;47.252;9.592;2022-08-19T07:04:52;18.60;99.90
9049;DHT22;4559;47.252;9.592;2022-08-19T07:07:18;18.60;99.90
9049;DHT22;4559;47.252;9.592;2022-08-19T07:09:46;18.60;99.90
9049;DHT22;4559;47.252;9.592;2022-08-19T07:12:13;18.60;99.90
9049;DHT22;4559;47.252;9.592;2022-08-19T07:14:41;18.60;99.90
9049;DHT22;4559;47.252;9.592;2022-08-19T07:17:09;18.60;99.90
9049;DHT22;4559;47.252;9.592;2022-08-19T07:19:36;18.60;99.90
9049;DHT22;4559;47.252;9.592;2022-08-19T07:22:05;18.60;99.90
9049;DHT22;4559;47.252;9.592;2022-08-19T07:24:31;18.70;99.90
9049;DHT22;4559;47.252;9.592;2022-08-19T07:26:59;18.60;99.90
9049;DHT22;4559;47.252;9.592;2022-08-19T07:29:29;18.70;99.90
9049;DHT22;4559;47.252;9.592;2022-08-19T07:31:56;18.70;99.90
9049;DHT22;4559;47.252;9.592;2022-08-19T07:34:24;18.70;99.90
9049;DHT22;4559;47.252;9.592;2022-08-19T07:36:51;18.60;99.90
9049;DHT22;4559;47.252;9.592;2022-08-19T07:39:29;18.70;99.90
9049;DHT22;4559;47.252;9.592;2022-08-19T07:41:57;18.60;99.90
9049;DHT22;4559;47.252;9.592;2022-08-19T07:44:23;18.60;99.90
9049;DHT22;4559;47.252;9.592;2022-08-19T07:46:53;18.60;99.90
9049;DHT22;4559;47.252;9.592;2022-08-19T07:49:20;18.60;99.90
9049;DHT22;4559;47.252;9.592;2022-08-19T07:51:55;18.50;99.90
9049;DHT22;4559;47.252;9.592;2022-08-19T07:54:23;18.50;99.90
9049;DHT22;4559;47.252;9.592;2022-08-19T07:56:49;18.50;99.90
9049;DHT22;4559;47.252;9.592;2022-08-19T07:59:16;18.50;99.90
9049;DHT22;4559;47.252;9.592;2022-08-19T08:01:46;18.50;99.90
9049;DHT22;4559;47.252;9.592;2022-08-19T08:04:13;18.50;99.90
9049;DHT22;4559;47.252;9.592;2022-08-19T08:06:57;18.40;99.90
9049;DHT22;4559;47.252;9.592;2022-08-19T08:09:43;18.40;99.90
9049;DHT22;4559;47.252;9.592;2022-08-19T08:12:22;18.40;99.90
9049;DHT22;4559;47.252;9.592;2022-08-19T08:14:52;18.30;99.90
9049;DHT22;4559;47.252;9.592;2022-08-19T08:17:22;18.40;99.90
9049;DHT22;4559;47.252;9.592;2022-08-19T08:19:48;18.40;99.90
9049;DHT22;4559;47.252;9.592;2022-08-19T08:22:17;18.40;99.90
9049;DHT22;4559;47.252;9.592;2022-08-19T08:25:05;18.50;99.90
9049;DHT22;4559;47.252;9.592;2022-08-19T08:27:31;18.60;99.90
9049;DHT22;4559;47.252;9.592;2022-08-19T08:30:00;18.60;99.90
9049;DHT22;4559;47.252;9.592;2022-08-19T08:32:25;18.60;99.90
9049;DHT22;4559;47.252;9.592;2022-08-19T08:34:52;18.70;99.90
9049;DHT22;4559;47.252;9.592;2022-08-19T08:37:17;18.70;99.90
9049;DHT22;4559;47.252;9.592;2022-08-19T08:39:43;18.70;99.90
9049;DHT22;4559;47.252;9.592;2022-08-19T08:45:13;18.70;99.90
9049;DHT22;4559;47.252;9.592;2022-08-19T08:47:44;18.80;99.90
9049;DHT22;4559;47.252;9.592;2022-08-19T08:50:19;18.80;99.90
9049;DHT22;4559;47.252;9.592;2022-08-19T08:52:52;18.70;99.90
9049;DHT22;4559;47.252;9.592;2022-08-19T08:55:24;18.80;99.90
9049;DHT22;4559;47.252;9.592;2022-08-19T09:00:26;18.80;99.90
9049;DHT22;4559;47.252;9.592;2022-08-19T09:02:54;18.70;99.90
9049;DHT22;4559;47.252;9.592;2022-08-19T09:05:21;18.70;99.90
9049;DHT22;4559;47.252;9.592;2022-08-19T09:08:05;18.70;99.90
9049;DHT22;4559;47.252;9.592;2022-08-19T09:10:38;18.70;99.90
9049;DHT22;4559;47.252;9.592;2022-08-19T09:16:09;18.70;99.90
9049;DHT22;4559;47.252;9.592;2022-08-19T09:18:47;18.70;99.90
9049;DHT22;4559;47.252;9.592;2022-08-19T09:21:14;18.70;99.90
9049;DHT22;4559;47.252;9.592;2022-08-19T09:23:40;18.70;99.90
9049;DHT22;4559;47.252;9.592;2022-08-19T09:26:10;18.70;99.90
9049;DHT22;4559;47.252;9.592;2022-08-19T09:28:39;18.70;99.90
9049;DHT22;4559;47.252;9.592;2022-08-19T09:31:18;18.70;99.90
9049;DHT22;4559;47.252;9.592;2022-08-19T09:33:44;18.70;99.90
9049;DHT22;4559;47.252;9.592;2022-08-19T09:36:12;18.60;99.90
9049;DHT22;4559;47.252;9.592;2022-08-19T09:38:39;18.70;99.90
9049;DHT22;4559;47.252;9.592;2022-08-19T09:41:07;18.70;99.90
9049;DHT22;4559;47.252;9.592;2022-08-19T09:43:34;18.60;99.90
9049;DHT22;4559;47.252;9.592;2022-08-19T09:46:06;18.60;99.90
9049;DHT22;4559;47.252;9.592;2022-08-19T09:48:33;18.60;99.90
9049;DHT22;4559;47.252;9.592;2022-08-19T09:51:19;18.60;99.90
9049;DHT22;4559;47.252;9.592;2022-08-19T09:53:47;18.60;99.90
9049;DHT22;4559;47.252;9.592;2022-08-19T09:56:16;18.60;99.90
9049;DHT22;4559;47.252;9.592;2022-08-19T09:58:42;18.60;99.90
9049;DHT22;4559;47.252;9.592;2022-08-19T10:01:09;18.60;99.90
9049;DHT22;4559;47.252;9.592;2022-08-19T10:03:36;18.60;99.90
9049;DHT22;4559;47.252;9.592;2022-08-19T10:06:03;18.50;99.90
9049;DHT22;4559;47.252;9.592;2022-08-19T10:08:35;18.50;99.90
9049;DHT22;4559;47.252;9.592;2022-08-19T10:11:02;18.50;99.90
9049;DHT22;4559;47.252;9.592;2022-08-19T10:13:30;18.50;99.90
9049;DHT22;4559;47.252;9.592;2022-08-19T10:16:04;18.40;99.90
9049;DHT22;4559;47.252;9.592;2022-08-19T10:18:30;18.50;99.90
9049;DHT22;4559;47.252;9.592;2022-08-19T10:21:20;18.40;99.90
9049;DHT22;4559;47.252;9.592;2022-08-19T10:23:49;18.40;99.90
9049;DHT22;4559;47.252;9.592;2022-08-19T10:26:26;18.40;99.90
9049;DHT22;4559;47.252;9.592;2022-08-19T10:28:53;18.40;99.90
9049;DHT22;4559;47.252;9.592;2022-08-19T10:31:22;18.40;99.90
9049;DHT22;4559;47.252;9.592;2022-08-19T10:33:49;18.30;99.90
9049;DHT22;4559;47.252;9.592;2022-08-19T10:36:20;18.30;99.90
9049;DHT22;4559;47.252;9.592;2022-08-19T10:38:49;18.30;99.90
9049;DHT22;4559;47.252;9.592;2022-08-19T10:41:22;18.30;99.90
9049;DHT22;4559;47.252;9.592;2022-08-19T10:43:52;18.30;99.90
9049;DHT22;4559;47.252;9.592;2022-08-19T10:46:20;18.30;99.90
9049;DHT22;4559;47.252;9.592;2022-08-19T10:48:47;18.30;99.90
9049;DHT22;4559;47.252;9.592;2022-08-19T10:51:13;18.30;99.90
9049;DHT22;4559;47.252;9.592;2022-08-19T10:53:58;18.20;99.90
9049;DHT22;4559;47.252;9.592;2022-08-19T10:56:25;18.20;99.90
9049;DHT22;4559;47.252;9.592;2022-08-19T10:59:09;18.20;99.90
9049;DHT22;4559;47.252;9.592;2022-08-19T11:01:36;18.20;99.90
9049;DHT22;4559;47.252;9.592;2022-08-19T11:04:03;18.10;99.90
9049;DHT22;4559;47.252;9.592;2022-08-19T11:06:31;18.10;99.90
9049;DHT22;4559;47.252;9.592;2022-08-19T11:08:57;18.10;99.90
9049;DHT22;4559;47.252;9.592;2022-08-19T11:11:23;18.10;99.90
9049;DHT22;4559;47.252;9.592;2022-08-19T11:13:49;18.10;99.90
9049;DHT22;4559;47.252;9.592;2022-08-19T11:16:18;18.10;99.90
9049;DHT22;4559;47.252;9.592;2022-08-19T11:18:47;18.10;99.90
9049;DHT22;4559;47.252;9.592;2022-08-19T11:23:40;18.00;99.90
9049;DHT22;4559;47.252;9.592;2022-08-19T11:26:06;18.00;99.90
9049;DHT22;4559;47.252;9.592;2022-08-19T11:28:31;18.00;99.90
9049;DHT22;4559;47.252;9.592;2022-08-19T11:30:57;18.10;99.90
9049;DHT22;4559;47.252;9.592;2022-08-19T11:33:23;18.10;99.90
9049;DHT22;4559;47.252;9.592;2022-08-19T11:35:48;18.10;99.90
9049;DHT22;4559;47.252;9.592;2022-08-19T11:38:14;18.10;99.90
9049;DHT22;4559;47.252;9.592;2022-08-19T11:40:40;18.10;99.90
9049;DHT22;4559;47.252;9.592;2022-08-19T11:43:07;18.10;99.90
9049;DHT22;4559;47.252;9.592;2022-08-19T11:45:34;18.00;99.90
9049;DHT22;4559;47.252;9.592;2022-08-19T11:48:00;18.00;99.90
9049;DHT22;4559;47.252;9.592;2022-08-19T11:50:27;18.10;99.90
9049;DHT22;4559;47.252;9.592;2022-08-19T11:52:54;18.00;99.90
9049;DHT22;4559;47.252;9.592;2022-08-19T11:55:20;18.00;99.90
9049;DHT22;4559;47.252;9.592;2022-08-19T11:57:46;18.00;99.90
9049;DHT22;4559;47.252;9.592;2022-08-19T12:00:12;18.00;99.90
9049;DHT22;4559;47.252;9.592;2022-08-19T12:02:39;18.00;99.90
9049;DHT22;4559;47.252;9.592;2022-08-19T12:05:05;18.00;99.90
9049;DHT22;4559;47.252;9.592;2022-08-19T12:07:31;18.00;99.90
9049;DHT22;4559;47.252;9.592;2022-08-19T12:09:59;18.00;99.90
9049;DHT22;4559;47.252;9.592;2022-08-19T12:12:25;18.00;99.90
9049;DHT22;4559;47.252;9.592;2022-08-19T12:14:52;18.00;99.90
9049;DHT22;4559;47.252;9.592;2022-08-19T12:17:30;18.00;99.90
9049;DHT22;4559;47.252;9.592;2022-08-19T12:19:56;18.00;99.90
9049;DHT22;4559;47.252;9.592;2022-08-19T12:22:22;18.00;99.90
9049;DHT22;4559;47.252;9.592;2022-08-19T12:24:48;18.00;99.90
9049;DHT22;4559;47.252;9.592;2022-08-19T12:27:16;18.00;99.90
9049;DHT22;4559;47.252;9.592;2022-08-19T12:29:41;18.00;99.90
9049;DHT22;4559;47.252;9.592;2022-08-19T12:32:07;18.00;99.90
9049;DHT22;4559;47.252;9.592;2022-08-19T12:34:34;18.00;99.90
9049;DHT22;4559;47.252;9.592;2022-08-19T12:37:02;18.00;99.90
9049;DHT22;4559;47.252;9.592;2022-08-19T12:39:28;18.00;99.90
9049;DHT22;4559;47.252;9.592;2022-08-19T12:41:54;18.00;99.90
9049;DHT22;4559;47.252;9.592;2022-08-19T12:44:20;18.00;99.90
9049;DHT22;4559;47.252;9.592;2022-08-19T12:46:46;18.00;99.90
9049;DHT22;4559;47.252;9.592;2022-08-19T12:49:12;17.90;99.90
9049;DHT22;4559;47.252;9.592;2022-08-19T12:51:38;17.90;99.90
9049;DHT22;4559;47.252;9.592;2022-08-19T12:54:04;17.90;99.90
9049;DHT22;4559;47.252;9.592;2022-08-19T12:56:30;17.80;99.90
9049;DHT22;4559;47.252;9.592;2022-08-19T12:58:56;17.80;99.90
9049;DHT22;4559;47.252;9.592;2022-08-19T13:01:22;17.80;99.90
9049;DHT22;4559;47.252;9.592;2022-08-19T13:03:47;17.80;99.90
9049;DHT22;4559;47.252;9.592;2022-08-19T13:06:14;17.70;99.90
9049;DHT22;4559;47.252;9.592;2022-08-19T13:08:40;17.70;99.90
9049;DHT22;4559;47.252;9.592;2022-08-19T13:11:15;17.70;99.90
9049;DHT22;4559;47.252;9.592;2022-08-19T13:13:43;17.70;99.90
9049;DHT22;4559;47.252;9.592;2022-08-19T13:16:10;17.70;99.90
9049;DHT22;4559;47.252;9.592;2022-08-19T13:18:37;17.70;99.90
9049;DHT22;4559;47.252;9.592;2022-08-19T13:21:08;17.70;99.90
9049;DHT22;4559;47.252;9.592;2022-08-19T13:23:35;17.70;99.90
9049;DHT22;4559;47.252;9.592;2022-08-19T13:26:04;17.70;99.90
9049;DHT22;4559;47.252;9.592;2022-08-19T13:28:30;17.70;99.90
9049;DHT22;4559;47.252;9.592;2022-08-19T13:31:17;17.70;99.90
9049;DHT22;4559;47.252;9.592;2022-08-19T13:34:02;17.70;99.90
9049;DHT22;4559;47.252;9.592;2022-08-19T13:36:28;17.70;99.90
9049;DHT22;4559;47.252;9.592;2022-08-19T13:38:54;17.80;99.90
9049;DHT22;4559;47.252;9.592;2022-08-19T13:41:20;17.80;99.90
9049;DHT22;4559;47.252;9.592;2022-08-19T13:43:48;17.80;99.90
9049;DHT22;4559;47.252;9.592;2022-08-19T13:46:15;17.80;99.90
9049;DHT22;4559;47.252;9.592;2022-08-19T13:48:41;17.80;99.90
9049;DHT22;4559;47.252;9.592;2022-08-19T13:51:07;17.80;99.90
9049;DHT22;4559;47.252;9.592;2022-08-19T13:53:36;17.80;99.90
9049;DHT22;4559;47.252;9.592;2022-08-19T13:56:07;17.80;99.90
9049;DHT22;4559;47.252;9.592;2022-08-19T13:58:33;17.80;99.90
9049;DHT22;4559;47.252;9.592;2022-08-19T14:00:59;17.80;99.90
9049;DHT22;4559;47.252;9.592;2022-08-19T14:03:26;17.80;99.90
9049;DHT22;4559;47.252;9.592;2022-08-19T14:05:52;17.90;99.90
9049;DHT22;4559;47.252;9.592;2022-08-19T14:08:17;17.90;99.90
9049;DHT22;4559;47.252;9.592;2022-08-19T14:10:44;17.90;99.90
9049;DHT22;4559;47.252;9.592;2022-08-19T14:13:14;17.90;99.90
9049;DHT22;4559;47.252;9.592;2022-08-19T14:15:39;17.90;99.90
9049;DHT22;4559;47.252;9.592;2022-08-19T14:18:05;17.90;99.90
9049;DHT22;4559;47.252;9.592;2022-08-19T14:20:34;17.80;99.90
9049;DHT22;4559;47.252;9.592;2022-08-19T14:23:00;17.80;99.90
9049;DHT22;4559;47.252;9.592;2022-08-19T14:25:28;17.80;99.90
9049;DHT22;4559;47.252;9.592;2022-08-19T14:27:55;17.80;99.90
9049;DHT22;4559;47.252;9.592;2022-08-19T14:30:26;17.80;99.90
9049;DHT22;4559;47.252;9.592;2022-08-19T14:32:56;17.80;99.90
9049;DHT22;4559;47.252;9.592;2022-08-19T14:35:24;17.80;99.90
9049;DHT22;4559;47.252;9.592;2022-08-19T14:37:51;17.90;99.90
9049;DHT22;4559;47.252;9.592;2022-08-19T14:40:22;17.90;99.90
9049;DHT22;4559;47.252;9.592;2022-08-19T14:43:00;17.90;99.90
9049;DHT22;4559;47.252;9.592;2022-08-19T14:45:30;17.90;99.90
9049;DHT22;4559;47.252;9.592;2022-08-19T14:47:56;17.90;99.90
9049;DHT22;4559;47.252;9.592;2022-08-19T14:50:22;17.90;99.90
9049;DHT22;4559;47.252;9.592;2022-08-19T14:52:48;18.00;99.90
9049;DHT22;4559;47.252;9.592;2022-08-19T14:55:15;17.90;99.90
9049;DHT22;4559;47.252;9.592;2022-08-19T14:57:42;17.90;99.90
9049;DHT22;4559;47.252;9.592;2022-08-19T15:00:08;18.00;99.90
9049;DHT22;4559;47.252;9.592;2022-08-19T15:02:41;18.00;99.90
9049;DHT22;4559;47.252;9.592;2022-08-19T15:05:09;18.00;99.90
9049;DHT22;4559;47.252;9.592;2022-08-19T15:07:36;18.00;99.90
9049;DHT22;4559;47.252;9.592;2022-08-19T15:10:02;18.00;99.90
9049;DHT22;4559;47.252;9.592;2022-08-19T15:12:28;18.00;99.90
9049;DHT22;4559;47.252;9.592;2022-08-19T15:14:54;17.90;99.90
9049;DHT22;4559;47.252;9.592;2022-08-19T15:17:20;17.90;99.90
9049;DHT22;4559;47.252;9.592;2022-08-19T15:19:46;17.90;99.90
9049;DHT22;4559;47.252;9.592;2022-08-19T15:22:11;17.90;99.90
9049;DHT22;4559;47.252;9.592;2022-08-19T15:24:37;17.90;99.90
9049;DHT22;4559;47.252;9.592;2022-08-19T15:27:04;18.00;99.90
9049;DHT22;4559;47.252;9.592;2022-08-19T15:29:30;17.90;99.90
9049;DHT22;4559;47.252;9.592;2022-08-19T15:31:56;18.00;99.90
9049;DHT22;4559;47.252;9.592;2022-08-19T15:34:23;18.00;99.90
9049;DHT22;4559;47.252;9.592;2022-08-19T15:36:51;17.90;99.90
9049;DHT22;4559;47.252;9.592;2022-08-19T15:39:17;17.90;99.90
9049;DHT22;4559;47.252;9.592;2022-08-19T15:41:44;17.90;99.90
9049;DHT22;4559;47.252;9.592;2022-08-19T15:44:12;17.90;99.90
9049;DHT22;4559;47.252;9.592;2022-08-19T15:46:41;17.90;99.90
9049;DHT22;4559;47.252;9.592;2022-08-19T15:49:09;17.90;99.90
9049;DHT22;4559;47.252;9.592;2022-08-19T15:51:37;17.90;99.90
9049;DHT22;4559;47.252;9.592;2022-08-19T15:54:06;17.90;99.90
9049;DHT22;4559;47.252;9.592;2022-08-19T15:56:33;17.80;99.90
9049;DHT22;4559;47.252;9.592;2022-08-19T15:59:17;17.80;99.90
9049;DHT22;4559;47.252;9.592;2022-08-19T16:02:01;17.80;99.90
9049;DHT22;4559;47.252;9.592;2022-08-19T16:04:45;17.80;99.90
9049;DHT22;4559;47.252;9.592;2022-08-19T16:07:30;17.80;99.90
9049;DHT22;4559;47.252;9.592;2022-08-19T16:09:55;17.80;99.90
9049;DHT22;4559;47.252;9.592;2022-08-19T16:12:21;17.80;99.90
9049;DHT22;4559;47.252;9.592;2022-08-19T16:14:54;17.70;99.90
9049;DHT22;4559;47.252;9.592;2022-08-19T16:17:20;17.70;99.90
9049;DHT22;4559;47.252;9.592;2022-08-19T16:19:46;17.70;99.90
9049;DHT22;4559;47.252;9.592;2022-08-19T16:22:14;17.70;99.90